Latest Weather Observations for Combienbar

IDV60801

Issued at 6:02 pm EDT Sunday 29 March 2015 (issued every 30 minutes, with the page automatically refreshed every 10 minutes)

About weather observations | Map of weather stations | Latest weather observations for VIC | Other Formats
Station Details ID: 084143 Name: COMBIENBAR AWS Lat: -37.34 Lon: 149.02 Height: 640.0 m
Data from the previous 72 hours. | See also: Recent months at Combienbar
Date/Time
EDT
Temp
°C
App
Temp
°C
Dew
Point
Rel
Hum
%
Delta-T
°C
Wind Press
QNH
hPa
Press
MSL
hPa
Rain
since 9 am
mm
Dir
 
Spd
km/h
Gust
km/h
Spd
kts
Gust
kts
29/06:00pm 16.7 16.8 10.3 66 3.5 CALM 0 2 0 1 1022.0 1020.1 0.0
29/05:30pm 18.8 19.0 10.4 58 4.6 CALM 0 0 0 0 1021.9 1020.0 0.0
29/05:00pm 19.3 19.1 9.2 52 5.5 CALM 0 0 0 0 1021.9 1020.0 0.0
29/04:30pm 19.8 19.6 9.1 50 5.8 CALM 0 0 0 0 1021.9 1020.0 0.0
29/04:00pm 19.9 19.8 9.5 51 5.7 CALM 0 0 0 0 1022.0 1020.1 0.0
29/03:30pm 19.9 19.4 7.9 46 6.4 CALM 0 0 0 0 1022.2 1020.3 0.0
29/03:00pm 19.6 19.3 8.6 49 5.9 CALM 0 0 0 0 1022.2 1020.3 0.0
29/02:30pm 19.6 19.5 9.5 52 5.5 CALM 0 0 0 0 1022.4 1020.5 0.0
29/02:00pm 19.2 19.2 9.7 54 5.2 CALM 0 2 0 1 1022.5 1020.6 0.0
29/01:30pm 18.6 18.5 9.4 55 5.0 CALM 0 0 0 0 1022.9 1020.9 0.0
29/01:00pm 17.6 17.7 10.0 61 4.1 CALM 0 4 0 2 1023.5 1021.6 0.0
29/12:30pm 16.9 16.7 9.1 60 4.2 CALM 0 2 0 1 1023.8 1021.9 0.0
29/12:00pm 18.0 17.6 9.9 59 4.4 NE 2 7 1 4 1023.7 1021.8 0.0
29/11:30am 16.3 16.0 8.5 60 4.1 CALM 0 2 0 1 1024.1 1022.2 0.0
29/11:00am 15.1 14.9 9.2 68 3.1 CALM 0 2 0 1 1024.2 1022.3 0.0
29/10:30am 14.2 13.7 7.9 66 3.2 CALM 0 2 0 1 1024.3 1022.4 0.0
29/10:00am 14.7 14.2 7.7 63 3.6 CALM 0 0 0 0 1024.0 1022.1 0.0
29/09:30am 12.9 12.5 8.4 74 2.3 CALM 0 0 0 0 1024.0 1022.1 0.0
29/09:00am 12.0 11.6 8.1 77 2.0 CALM 0 0 0 0 1023.6 1021.7 0.0
29/08:30am 11.5 11.1 8.4 81 1.6 CALM 0 0 0 0 1023.1 1021.1 0.0
29/08:00am 9.7 9.0 7.0 83 1.3 CALM 0 0 0 0 1022.7 1020.8 0.0
29/07:30am 9.6 9.0 7.2 85 1.2 CALM 0 0 0 0 1022.4 1020.5 0.0
29/07:00am 9.4 8.4 5.4 76 1.9 CALM 0 2 0 1 1022.0 1020.1 0.0
29/06:30am 9.4 8.4 5.4 76 1.9 CALM 0 0 0 0 1021.5 1019.5 0.0
29/06:00am 9.3 8.4 6.2 81 1.5 CALM 0 0 0 0 1021.4 1019.4 0.0
29/05:30am 9.6 8.9 6.9 83 1.3 CALM 0 0 0 0 1021.2 1019.2 0.0
29/05:00am 10.0 9.3 7.1 82 1.4 CALM 0 0 0 0 1020.9 1019.0 0.0
29/04:30am 9.6 8.5 7.0 84 1.3 NNE 2 7 1 4 1020.9 1019.0 0.0
29/04:00am 9.9 9.4 7.7 86 1.1 CALM 0 2 0 1 1020.9 1019.0 0.0
29/03:30am 9.4 8.8 7.5 88 0.9 CALM 0 0 0 0 1021.2 1019.2 0.0
29/03:00am 9.5 9.1 8.1 91 0.7 CALM 0 0 0 0 1021.6 1019.6 0.0
29/02:30am 9.6 9.2 8.2 91 0.7 CALM 0 0 0 0 1021.9 1020.0 0.0
29/02:00am 9.6 8.8 8.2 91 0.7 NNE 2 6 1 3 1022.2 1020.3 0.0
29/01:30am 9.5 9.1 8.1 91 0.7 CALM 0 0 0 0 1022.6 1020.7 0.0
29/01:00am 9.7 9.4 8.5 92 0.6 CALM 0 0 0 0 1022.7 1020.8 0.0
29/12:30am 9.2 8.7 8.0 92 0.6 CALM 0 0 0 0 1022.9 1020.9 0.0
29/12:00am 9.2 8.8 8.1 93 0.5 CALM 0 0 0 0 1023.1 1021.1 0.0
 
Date/Time
EDT
Temp
°C
App
Temp
°C
Dew
Point
Rel
Hum
%
Delta-T
°C
Wind Press
QNH
hPa
Press
MSL
hPa
Rain
since 9 am
mm
Dir
 
Spd
km/h
Gust
km/h
Spd
kts
Gust
kts
28/11:30pm 8.9 8.4 7.7 92 0.6 CALM 0 0 0 0 1023.5 1021.6 0.0
28/11:00pm 9.1 8.6 7.9 92 0.6 CALM 0 0 0 0 1023.7 1021.8 0.0
28/10:30pm 9.2 8.7 7.8 91 0.7 CALM 0 0 0 0 1023.8 1021.9 0.0
28/10:00pm 9.3 8.8 7.7 90 0.8 CALM 0 0 0 0 1024.0 1022.1 0.0
28/09:30pm 9.6 9.1 7.7 88 0.9 CALM 0 0 0 0 1024.1 1022.2 0.0
28/09:00pm 10.0 9.5 7.9 87 1.0 CALM 0 0 0 0 1023.9 1022.0 0.0
28/08:30pm 10.7 10.3 8.3 85 1.2 CALM 0 0 0 0 1023.9 1022.0 0.0
28/08:00pm 10.5 10.1 8.3 86 1.1 CALM 0 0 0 0 1023.7 1021.8 0.0
28/07:30pm 10.8 10.4 8.2 84 1.3 CALM 0 0 0 0 1023.5 1021.6 0.0
28/07:00pm 11.5 11.1 8.4 81 1.6 CALM 0 0 0 0 1023.2 1021.2 0.0
28/06:30pm 12.7 12.4 8.6 76 2.1 CALM 0 0 0 0 1023.0 1021.0 0.0
28/06:00pm 14.9 14.7 9.1 68 3.1 CALM 0 4 0 2 1022.9 1020.9 0.0
28/05:30pm 15.4 15.2 8.9 65 3.4 CALM 0 4 0 2 1022.5 1020.6 0.0
28/05:00pm 16.2 16.0 9.2 63 3.7 CALM 0 4 0 2 1022.6 1020.7 0.0
28/04:30pm 16.6 16.3 8.6 59 4.2 CALM 0 2 0 1 1022.6 1020.7 0.0
28/04:00pm 16.9 16.7 9.1 60 4.2 CALM 0 2 0 1 1022.7 1020.8 0.0
28/03:30pm 16.4 16.1 8.6 60 4.1 CALM 0 2 0 1 1022.9 1020.9 0.0
28/03:00pm 16.6 16.3 8.8 60 4.1 CALM 0 6 0 3 1023.2 1021.2 0.0
28/02:30pm 16.4 16.0 8.4 59 4.2 CALM 0 4 0 2 1023.3 1021.4 0.0
28/02:00pm 16.2 15.9 8.7 61 4.0 CALM 0 6 0 3 1023.5 1021.6 0.0
28/01:30pm 15.4 14.5 7.7 60 4.0 SSW 2 4 1 2 1023.6 1021.7 0.0
28/01:00pm 15.5 14.9 7.5 59 4.1 CALM 0 6 0 3 1024.0 1022.1 0.0
28/12:30pm 15.5 14.4 7.0 57 4.3 SW 2 2 1 1 1024.6 1022.6 0.0
28/12:00pm 14.6 13.5 6.9 60 3.9 SW 2 7 1 4 1024.8 1022.9 0.0
28/11:30am 13.4 12.1 6.0 61 3.6 SSW 2 7 1 4 1024.9 1023.0 0.0
28/11:00am 12.6 11.3 5.8 63 3.3 SSW 2 7 1 4 1024.9 1023.0 0.0
28/10:30am 12.2 10.4 5.6 64 3.2 SW 4 7 2 4 1024.8 1022.9 0.0
28/10:00am 11.4 9.5 5.1 65 3.0 SW 4 11 2 6 1025.1 1023.2 0.0
28/09:30am 10.9 9.1 5.2 68 2.7 SW 4 6 2 3 1024.9 1023.0 0.0
28/09:00am 9.9 7.6 4.9 71 2.3 SW 6 11 3 6 1024.6 1022.6 0.0
28/08:30am 9.4 7.1 5.0 74 2.1 SW 6 11 3 6 1024.2 1022.3 0.0
28/08:00am 8.7 6.2 4.9 77 1.7 SW 7 13 4 7 1023.9 1022.0 0.0
28/07:30am 8.4 6.1 5.0 79 1.6 SW 6 9 3 5 1023.7 1021.8 0.0
28/07:00am 8.7 6.8 5.1 78 1.7 SW 4 13 2 7 1023.3 1021.4 0.0
28/06:30am 8.8 6.6 5.2 78 1.7 SW 6 13 3 7 1023.0 1021.0 0.0
28/06:00am 8.7 6.8 4.9 77 1.8 SW 4 9 2 5 1022.9 1020.9 0.0
28/05:30am 9.2 6.7 4.8 74 2.0 SW 7 17 4 9 1022.3 1020.4 0.0
28/05:00am 9.4 6.5 4.6 72 2.2 SW 9 24 5 13 1022.0 1020.1 0.0
28/04:30am 9.5 6.2 4.5 71 2.3 SW 11 22 6 12 1021.7 1019.7 0.0
28/04:00am 9.4 6.9 4.8 73 2.1 SW 7 13 4 7 1022.2 1020.3 0.0
28/03:30am 9.4 6.9 4.8 73 2.1 SW 7 15 4 8 1022.2 1020.3 0.0
28/03:00am 9.4 6.6 5.2 75 2.0 SW 9 22 5 12 1022.1 1020.2 0.0
28/02:30am 9.7 6.2 5.3 74 2.1 SW 13 22 7 12 1021.9 1020.0 0.0
28/02:00am 9.6 6.2 5.8 77 1.8 SW 13 20 7 11 1021.8 1019.8 0.0
28/01:30am 9.9 6.1 5.9 76 1.9 SW 15 20 8 11 1021.7 1019.7 0.0
28/01:00am 10.1 7.1 6.1 76 1.9 SW 11 22 6 12 1021.9 1020.0 0.0
28/12:30am 10.2 7.2 6.0 75 2.0 SW 11 24 6 13 1021.9 1020.0 0.0
28/12:00am 10.2 7.2 6.2 76 1.9 SW 11 26 6 14 1021.8 1019.8 0.0
 
Date/Time
EDT
Temp
°C
App
Temp
°C
Dew
Point
Rel
Hum
%
Delta-T
°C
Wind Press
QNH
hPa
Press
MSL
hPa
Rain
since 9 am
mm
Dir
 
Spd
km/h
Gust
km/h
Spd
kts
Gust
kts
27/11:30pm 10.3 8.3 6.3 76 1.9 SW 6 11 3 6 1021.8 1019.8 0.0
27/11:00pm 10.4 8.4 6.4 76 1.9 SSW 6 22 3 12 1021.7 1019.7 0.0
27/10:30pm 10.7 8.5 6.3 74 2.1 SW 7 22 4 12 1021.7 1019.7 0.0
27/10:00pm 10.8 8.6 6.4 74 2.1 SW 7 17 4 9 1021.4 1019.4 0.0
27/09:30pm 10.9 8.7 6.3 73 2.2 SSW 7 11 4 6 1021.2 1019.2 0.0
27/09:00pm 11.0 7.3 6.2 72 2.3 SW 15 32 8 17 1020.4 1018.4 0.0
27/08:30pm 11.0 6.6 6.4 73 2.2 SW 19 35 10 19 1020.1 1018.1 0.0
27/08:00pm 11.3 7.2 6.2 71 2.5 SW 17 30 9 16 1019.7 1017.7 0.0
27/07:30pm 11.6 7.9 6.3 70 2.6 SW 15 30 8 16 1019.6 1017.6 0.0
27/07:00pm 11.9 7.8 6.2 68 2.8 SW 17 24 9 13 1019.0 1017.0 0.0
27/06:30pm 11.8 8.5 6.3 69 2.7 SW 13 28 7 15 1018.5 1016.5 0.0
27/06:00pm 12.4 8.7 6.2 66 3.0 SW 15 28 8 15 1018.2 1016.2 0.0
27/05:30pm 12.3 9.0 6.6 68 2.8 SW 13 24 7 13 1018.0 1016.0 0.0
27/05:00pm 12.1 8.5 6.6 69 2.7 SW 15 26 8 14 1017.6 1015.6 0.0
27/04:30pm 12.3 9.0 6.6 68 2.8 SW 13 28 7 15 1017.5 1015.5 0.0
27/04:00pm 12.8 9.5 6.6 66 3.1 SW 13 30 7 16 1017.3 1015.3 0.0
27/03:30pm 13.5 10.6 6.6 63 3.4 SW 11 22 6 12 1017.5 1015.5 0.0
27/03:00pm 14.3 11.1 6.9 61 3.7 SW 13 32 7 17 1017.3 1015.3 0.0
27/02:30pm 13.5 10.6 6.4 62 3.5 SW 11 19 6 10 1017.4 1015.4 0.0
27/02:00pm 13.2 10.4 7.0 66 3.1 SW 11 20 6 11 1017.7 1015.8 0.0
27/01:30pm 11.8 9.0 7.1 73 2.3 SW 11 19 6 10 1018.5 1016.5 0.0
27/01:00pm 11.9 9.1 7.0 72 2.4 SW 11 20 6 11 1018.5 1016.5 0.0
27/12:30pm 12.1 8.7 5.9 66 3.0 SW 13 20 7 11 1018.4 1016.4 0.0
27/12:00pm 13.8 10.2 5.2 56 4.2 SW 13 32 7 17 1018.2 1016.2 0.0
27/11:30am 13.3 10.1 5.2 58 3.9 SW 11 22 6 12 1018.1 1016.1 0.0
27/11:00am 13.8 10.1 4.7 54 4.4 SW 13 28 7 15 1017.7 1015.8 0.0
27/10:30am 14.0 11.6 5.1 55 4.3 SW 7 17 4 9 1017.5 1015.5 0.0
27/10:00am 12.4 8.5 3.6 55 4.1 SW 13 41 7 22 1017.2 1015.2 0.0
27/09:30am 12.3 9.2 3.5 55 4.1 WSW 9 30 5 16 1017.0 1015.0 0.0
27/09:00am 11.5 8.4 3.8 59 3.6 WSW 9 22 5 12 1017.2 1015.2 0.0
27/08:30am 11.1 7.5 3.2 58 3.6 SW 11 37 6 20 1016.9 1014.9 0.0
27/08:00am 10.8 7.2 2.9 58 3.6 SW 11 24 6 13 1016.5 1014.5 0.0
27/07:30am 10.5 6.9 2.8 59 3.4 SW 11 22 6 12 1016.4 1014.4 0.0
27/07:00am 10.5 7.6 2.6 58 3.5 SW 7 22 4 12 1016.2 1014.1 0.0
27/06:30am 10.7 7.4 2.3 56 3.7 SW 9 26 5 14 1015.9 1013.9 0.0
27/06:00am 10.6 7.3 2.2 56 3.7 WSW 9 26 5 14 1015.4 1013.4 0.0
27/05:30am 10.9 6.8 2.0 54 3.9 SW 13 30 7 16 1015.3 1013.3 0.0
27/05:00am 10.9 6.7 1.7 53 4.0 SW 13 30 7 16 1015.2 1013.2 0.0
27/04:30am 10.6 7.2 1.9 55 3.8 SW 9 30 5 16 1015.2 1013.2 0.0
27/04:00am 10.6 7.1 1.4 53 4.0 WSW 9 22 5 12 1015.4 1013.4 0.0
27/03:30am 10.6 7.5 1.2 52 4.1 SW 7 19 4 10 1015.6 1013.6 0.0
27/03:00am 10.5 7.4 1.1 52 4.0 SW 7 20 4 11 1016.0 1014.0 0.0
27/02:30am 10.7 7.0 0.2 48 4.4 W 9 26 5 14 1016.4 1014.4 0.0
27/02:00am 10.6 6.5 -0.2 47 4.5 WNW 11 28 6 15 1016.7 1014.7 0.0
27/01:30am 10.8 5.5 -0.6 45 4.7 NW 17 32 9 17 1016.5 1014.5 0.0
27/01:00am 11.0 5.3 -0.8 44 4.9 NW 19 39 10 21 1016.4 1014.4 0.0
27/12:30am 10.8 5.8 -0.9 44 4.8 WNW 15 37 8 20 1016.6 1014.6 0.0
27/12:00am 11.0 6.0 -1.4 42 5.1 WNW 15 32 8 17 1016.6 1014.6 0.0
 
Date/Time
EDT
Temp
°C
App
Temp
°C
Dew
Point
Rel
Hum
%
Delta-T
°C
Wind Press
QNH
hPa
Press
MSL
hPa
Rain
since 9 am
mm
Dir
 
Spd
km/h
Gust
km/h
Spd
kts
Gust
kts
26/11:30pm 11.2 5.7 -1.9 40 5.3 NW 17 43 9 23 1016.8 1014.8 0.0
26/11:00pm 11.1 6.0 -2.0 40 5.3 NW 15 48 8 26 1017.0 1015.0 0.0
26/10:30pm 11.0 6.6 -2.1 40 5.3 NW 11 30 6 16 1017.3 1015.3 0.0
26/10:00pm 11.2 6.5 -1.9 40 5.3 WNW 13 30 7 16 1017.5 1015.5 0.0
26/09:30pm 11.3 6.9 -2.1 39 5.4 WNW 11 26 6 14 1017.7 1015.8 0.0
26/09:00pm 11.5 7.5 -2.0 39 5.5 WNW 9 22 5 12 1018.1 1016.1 0.0
26/08:30pm 11.5 8.0 -1.3 41 5.3 W 7 22 4 12 1018.1 1016.1 0.0
26/08:00pm 12.1 8.5 -1.8 38 5.7 NW 7 13 4 7 1017.7 1015.8 0.0
26/07:30pm 12.1 8.6 -1.4 39 5.6 NW 7 15 4 8 1017.4 1015.4 0.0
26/07:00pm 12.7 9.4 -1.6 37 5.9 WNW 6 15 3 8 1017.0 1015.0 0.0
26/06:30pm 13.0 10.5 1.7 46 5.0 WNW 4 9 2 5 1016.8 1014.8 0.0

Other Formats:

Comma delimited format used in spreadsheet applications
http://www.bom.gov.au/fwo/IDV60801/IDV60801.94914.axf

JavaScript Object Notation format (JSON) in row-major order
http://www.bom.gov.au/fwo/IDV60801/IDV60801.94914.json